createdAt,value
2022-08-14T00:01:15.273Z,100189.28
2022-08-14T00:06:28.992Z,100179.63
2022-08-14T00:11:32.384Z,100188.56
2022-08-14T00:16:41.220Z,100191.78
2022-08-14T00:21:50.008Z,100194.16
2022-08-14T00:26:54.800Z,100188.00
2022-08-14T00:31:57.626Z,100183.53
2022-08-14T00:37:01.972Z,100187.25
2022-08-14T00:42:05.836Z,100191.84
2022-08-14T00:47:10.890Z,100186.03
2022-08-14T00:52:18.343Z,100181.94
2022-08-14T00:57:21.893Z,100182.56
2022-08-14T01:02:28.201Z,100174.44
2022-08-14T01:07:38.979Z,100174.25
2022-08-14T01:12:50.297Z,100171.78
2022-08-14T01:18:12.275Z,100170.41
2022-08-14T01:23:19.018Z,100171.94
2022-08-14T01:28:47.067Z,100173.94
2022-08-14T01:35:15.784Z,100167.16
2022-08-14T01:39:13.226Z,100172.03
2022-08-14T01:44:32.044Z,100173.34
2022-08-14T01:49:46.533Z,100165.94
2022-08-14T01:55:01.459Z,100174.19
2022-08-14T02:00:05.156Z,100164.63
2022-08-14T02:05:13.074Z,100155.41
2022-08-14T02:10:18.001Z,100150.47
2022-08-14T02:15:21.820Z,100149.94
2022-08-14T02:20:24.592Z,100155.75
2022-08-14T02:25:29.955Z,100145.47
2022-08-14T02:30:34.768Z,100142.38
2022-08-14T02:35:42.292Z,100145.09
2022-08-14T02:40:48.754Z,100142.91
2022-08-14T02:45:52.443Z,100140.06
2022-08-14T02:50:55.198Z,100147.06
2022-08-14T02:56:03.327Z,100148.91
2022-08-14T03:01:13.041Z,100155.19
2022-08-14T03:06:20.388Z,100147.38
2022-08-14T03:11:39.677Z,100141.59
2022-08-14T03:16:49.328Z,100130.94
2022-08-14T03:21:53.999Z,100125.53
2022-08-14T03:26:58.739Z,100125.25
2022-08-14T03:32:01.470Z,100128.47
2022-08-14T03:37:38.637Z,100134.50
2022-08-14T03:42:35.662Z,100127.84
2022-08-14T03:47:46.523Z,100130.47
2022-08-14T03:53:02.296Z,100118.44
2022-08-14T03:58:06.803Z,100109.50
2022-08-14T04:03:18.046Z,100107.91
2022-08-14T04:08:30.805Z,100109.94
2022-08-14T04:13:37.443Z,100120.25
2022-08-14T04:18:42.707Z,100119.13
2022-08-14T04:23:45.679Z,100114.81
2022-08-14T04:29:08.726Z,100119.34
2022-08-14T04:34:24.070Z,100121.06
2022-08-14T04:39:48.054Z,100119.06
2022-08-14T04:45:01.615Z,100103.78
2022-08-14T04:50:04.665Z,100106.84
2022-08-14T04:55:08.446Z,100102.13
2022-08-14T05:00:16.336Z,100105.25
2022-08-14T05:05:24.898Z,100102.56
2022-08-14T05:10:32.177Z,100098.91
2022-08-14T05:15:39.461Z,100087.13
2022-08-14T05:21:54.402Z,100081.03
2022-08-14T05:26:13.072Z,100092.19
2022-08-14T05:31:20.350Z,100090.06
2022-08-14T05:36:23.812Z,100083.84
2022-08-14T05:41:48.519Z,100076.75
2022-08-14T05:46:51.036Z,100071.69
2022-08-14T05:51:53.786Z,100072.69
2022-08-14T05:56:56.568Z,100070.47
2022-08-14T06:02:00.736Z,100056.72
2022-08-14T06:07:05.032Z,100056.28
2022-08-14T06:12:08.971Z,100056.91
2022-08-14T06:17:15.789Z,100048.66
2022-08-14T06:22:29.095Z,100040.75
2022-08-14T06:27:36.825Z,100026.63
2022-08-14T06:32:42.281Z,100024.34
2022-08-14T06:37:46.933Z,100020.41
2022-08-14T06:42:50.645Z,100012.94
2022-08-14T06:47:59.216Z,100014.34
2022-08-14T06:53:02.141Z,100014.63
2022-08-14T06:58:05.855Z,100013.63
2022-08-14T07:03:35.229Z,100014.22
2022-08-14T07:08:39.186Z,100006.09
2022-08-14T07:13:41.905Z,100010.19
2022-08-14T07:18:46.681Z,100011.59
2022-08-14T07:23:53.820Z,100008.97
2022-08-14T07:28:56.640Z,100008.34
2022-08-14T07:34:01.418Z,100008.16
2022-08-14T07:39:12.190Z,100008.56
2022-08-14T07:44:28.708Z,100002.28
2022-08-14T07:49:36.689Z,99993.19
2022-08-14T07:54:39.390Z,99997.16
2022-08-14T07:59:44.295Z,99997.72
2022-08-14T08:04:50.473Z,99993.53
2022-08-14T08:09:57.867Z,99986.84
2022-08-14T08:15:05.998Z,99992.63
2022-08-14T08:20:16.799Z,99992.34
2022-08-14T08:25:22.648Z,99985.63
2022-08-14T08:30:25.442Z,99984.47
2022-08-14T08:35:46.830Z,99980.31
2022-08-14T08:40:55.703Z,99979.16
2022-08-14T08:46:04.340Z,99970.75
2022-08-14T08:51:08.768Z,99964.03
2022-08-14T08:56:12.273Z,99959.72
2022-08-14T09:01:33.179Z,99945.38
2022-08-14T09:07:00.070Z,99935.09
2022-08-14T09:12:16.323Z,99938.47
2022-08-14T09:17:19.124Z,99933.16
2022-08-14T09:22:35.037Z,99925.63
2022-08-14T09:27:39.673Z,99917.56
2022-08-14T09:32:58.365Z,99908.69
2022-08-14T09:38:15.440Z,99904.97
2022-08-14T09:43:32.340Z,99900.78
2022-08-14T09:48:35.211Z,99888.34
2022-08-14T09:54:18.256Z,99888.69
2022-08-14T09:59:15.444Z,99882.84
2022-08-14T10:04:34.625Z,99876.25
2022-08-14T10:10:00.233Z,99865.09
2022-08-14T10:15:15.052Z,99847.88
2022-08-14T10:20:39.968Z,99847.03
2022-08-14T10:25:48.628Z,99836.25
2022-08-14T10:30:54.493Z,99823.97
2022-08-14T10:36:00.567Z,99827.16
2022-08-14T10:41:14.920Z,99817.03
2022-08-14T10:47:36.954Z,99824.00
2022-08-14T10:51:42.361Z,99815.22
2022-08-14T10:56:46.482Z,99804.44
2022-08-14T11:01:49.215Z,99798.03
2022-08-14T11:06:54.034Z,99804.81
2022-08-14T11:12:33.751Z,99797.88
2022-08-14T11:17:21.734Z,99794.16
2022-08-14T11:22:56.937Z,99785.72
2022-08-14T11:27:50.737Z,99774.56
2022-08-14T11:32:54.551Z,99779.97
2022-08-14T11:37:58.818Z,99774.94
2022-08-14T11:43:05.366Z,99759.72
2022-08-14T11:49:04.095Z,99763.94
2022-08-14T11:53:42.288Z,99759.00
2022-08-14T11:58:46.754Z,99748.72
2022-08-14T12:03:52.105Z,99742.44
2022-08-14T12:09:00.671Z,99736.19
2022-08-14T12:14:13.362Z,99724.03
2022-08-14T12:19:33.405Z,99726.72
2022-08-14T12:24:40.249Z,99728.22
2022-08-14T12:29:53.559Z,99716.41
2022-08-14T12:34:56.339Z,99710.84
2022-08-14T12:40:12.959Z,99691.19
2022-08-14T12:45:31.128Z,99692.41
2022-08-14T12:50:38.965Z,99691.03
2022-08-14T12:56:18.617Z,99674.78
2022-08-14T13:01:17.044Z,99676.00
2022-08-14T13:06:24.507Z,99674.97
2022-08-14T13:11:28.272Z,99665.81
2022-08-14T13:16:38.268Z,99649.78
2022-08-14T13:22:04.763Z,99637.44
2022-08-14T13:27:05.017Z,99629.97
2022-08-14T13:32:10.244Z,99627.09
2022-08-14T13:37:14.338Z,99617.28
2022-08-14T13:42:18.382Z,99611.69
2022-08-14T13:47:23.458Z,99604.94
2022-08-14T13:52:59.159Z,99596.31
2022-08-14T13:57:57.730Z,99595.28
2022-08-14T14:03:08.813Z,99594.44
2022-08-14T14:08:18.841Z,99592.09
2022-08-14T14:13:34.472Z,99578.22
2022-08-14T14:18:41.549Z,99577.25
2022-08-14T14:23:45.513Z,99564.38
2022-08-14T14:28:59.350Z,99555.97
2022-08-14T14:34:07.694Z,99552.00
2022-08-14T14:39:25.411Z,99554.50
2022-08-14T14:44:34.852Z,99544.22
2022-08-14T14:49:51.479Z,99539.97
2022-08-14T14:54:58.923Z,99532.03
2022-08-14T15:00:03.454Z,99532.84
2022-08-14T15:05:08.224Z,99526.44
2022-08-14T15:10:27.498Z,99524.06
2022-08-14T15:15:36.857Z,99523.25
2022-08-14T15:20:40.869Z,99529.81
2022-08-14T15:25:52.378Z,99528.66
2022-08-14T15:30:57.835Z,99520.03
2022-08-14T15:36:02.217Z,99522.88
2022-08-14T15:41:08.505Z,99520.56
2022-08-14T15:46:41.322Z,99517.66
2022-08-14T15:51:36.553Z,99519.50
2022-08-14T15:56:45.432Z,99517.16
2022-08-14T16:01:55.260Z,99509.03
2022-08-14T16:06:58.165Z,99509.53
2022-08-14T16:12:00.971Z,99489.22
2022-08-14T16:17:07.404Z,99485.81
2022-08-14T16:22:58.412Z,99491.19
2022-08-14T16:27:40.719Z,99479.84
2022-08-14T16:32:54.818Z,99483.13
2022-08-14T16:37:59.047Z,99470.06
2022-08-14T16:43:27.222Z,99463.63
2022-08-14T16:48:57.041Z,99468.16
2022-08-14T16:53:56.336Z,99467.13
2022-08-14T16:59:10.032Z,99455.28
2022-08-14T17:04:24.685Z,99449.97
2022-08-14T17:09:30.927Z,99448.97
2022-08-14T17:15:03.879Z,99438.13
2022-08-14T17:20:54.076Z,99428.69
2022-08-14T17:25:39.110Z,99422.44
2022-08-14T17:30:51.350Z,99417.66
2022-08-14T17:36:20.946Z,99404.13
2022-08-14T17:41:27.270Z,99416.63
2022-08-14T17:46:43.408Z,99412.91
2022-08-14T17:52:03.763Z,99418.28
2022-08-14T17:57:13.217Z,99417.53
2022-08-14T18:02:18.025Z,99417.38
2022-08-14T18:07:50.524Z,99411.78
2022-08-14T18:12:45.170Z,99411.47
2022-08-14T18:17:53.080Z,99416.69
2022-08-14T18:22:58.576Z,99426.69
2022-08-14T18:28:01.356Z,99423.84
2022-08-14T18:33:18.121Z,99436.03
2022-08-14T18:38:55.330Z,99432.31
2022-08-14T18:43:59.602Z,99450.94
2022-08-14T18:49:15.194Z,99446.81
2022-08-14T18:54:34.340Z,99452.22
2022-08-14T18:59:39.288Z,99450.38
2022-08-14T19:04:43.441Z,99460.19
2022-08-14T19:09:56.436Z,99455.22
2022-08-14T19:15:08.112Z,99464.88
2022-08-14T19:20:12.301Z,99453.66
2022-08-14T19:25:51.753Z,99455.47
2022-08-14T19:31:41.925Z,99459.56
2022-08-14T19:37:04.458Z,99449.03
2022-08-14T19:42:10.609Z,99451.78
2022-08-14T19:47:15.864Z,99448.63
2022-08-14T19:52:22.514Z,99443.91
2022-08-14T19:57:29.094Z,99447.34
2022-08-14T20:02:32.086Z,99442.03
2022-08-14T20:07:59.527Z,99449.97
2022-08-14T20:13:07.584Z,99441.34
2022-08-14T20:18:22.151Z,99440.03
2022-08-14T20:23:38.259Z,99433.78
2022-08-14T20:28:51.444Z,99436.13
2022-08-14T20:34:03.742Z,99434.22
2022-08-14T20:39:10.063Z,99436.75
2022-08-14T20:44:39.369Z,99427.22
2022-08-14T20:49:42.799Z,99422.56
2022-08-14T20:54:50.587Z,99431.59
2022-08-14T20:59:57.309Z,99439.59
2022-08-14T21:05:03.621Z,99429.59
2022-08-14T21:10:33.640Z,99436.50
2022-08-14T21:15:32.073Z,99435.31
2022-08-14T21:20:36.830Z,99433.91
2022-08-14T21:25:39.713Z,99428.56
2022-08-14T21:30:51.137Z,99433.81
2022-08-14T21:35:56.952Z,99434.75
2022-08-14T21:41:00.994Z,99434.16
2022-08-14T21:46:03.841Z,99432.88
2022-08-14T21:51:52.818Z,99429.53
2022-08-14T21:56:37.639Z,99423.41
2022-08-14T22:01:59.554Z,99417.16
2022-08-14T22:07:07.114Z,99415.47
2022-08-14T22:12:10.394Z,99414.66
2022-08-14T22:17:16.294Z,99418.69
2022-08-14T22:22:21.635Z,99410.06
2022-08-14T22:27:24.811Z,99414.84
2022-08-14T22:32:55.992Z,99406.06
2022-08-14T22:38:35.036Z,99401.84
2022-08-14T22:43:15.273Z,99398.63
2022-08-14T22:48:18.959Z,99386.50
2022-08-14T22:53:23.026Z,99370.59
2022-08-14T22:58:31.557Z,99378.25
2022-08-14T23:03:37.781Z,99364.22
2022-08-14T23:08:58.131Z,99361.03
2022-08-14T23:14:05.599Z,99363.06
2022-08-14T23:19:15.163Z,99354.31
2022-08-14T23:24:27.330Z,99349.25
2022-08-14T23:29:31.402Z,99348.38
2022-08-14T23:34:39.472Z,99353.16
2022-08-14T23:39:52.214Z,99343.53
2022-08-14T23:44:56.223Z,99352.03
2022-08-14T23:50:04.237Z,99346.59
2022-08-14T23:55:12.170Z,99325.13
